sensor_id;sensor_type;location;lat;lon;timestamp;pressure;altitude;pressure_sealevel;temperature;humidity
50250;BME280;36133;42.522;27.456;2022-08-01T00:02:29;100697.56;;;24.61;65.67
50250;BME280;36133;42.522;27.456;2022-08-01T00:04:56;100828.94;;;26.36;62.76
50250;BME280;36133;42.522;27.456;2022-08-01T00:07:22;100683.69;;;24.71;65.04
50250;BME280;36133;42.522;27.456;2022-08-01T00:09:48;100587.19;;;24.51;63.69
50250;BME280;36133;42.522;27.456;2022-08-01T00:12:13;100809.56;;;26.41;61.97
50250;BME280;36133;42.522;27.456;2022-08-01T00:14:39;100808.69;;;26.45;61.73
50250;BME280;36133;42.522;27.456;2022-08-01T00:17:05;100717.25;;;25.92;62.18
50250;BME280;36133;42.522;27.456;2022-08-01T00:19:30;100696.97;;;26.07;61.22
50250;BME280;36133;42.522;27.456;2022-08-01T00:21:56;100815.84;;;26.12;63.94
50250;BME280;36133;42.522;27.456;2022-08-01T00:24:23;100786.78;;;25.26;65.73
50250;BME280;36133;42.522;27.456;2022-08-01T00:26:48;100693.31;;;24.84;65.76
50250;BME280;36133;42.522;27.456;2022-08-01T00:29:14;100589.94;;;24.51;64.18
50250;BME280;36133;42.522;27.456;2022-08-01T00:31:39;100794.06;;;25.61;65.31
50250;BME280;36133;42.522;27.456;2022-08-01T00:34:05;100814.88;;;25.49;66.12
50250;BME280;36133;42.522;27.456;2022-08-01T00:36:30;100654.59;;;24.94;64.86
50250;BME280;36133;42.522;27.456;2022-08-01T00:38:56;100799.69;;;25.90;64.34
50250;BME280;36133;42.522;27.456;2022-08-01T00:41:21;100811.31;;;25.38;65.79
50250;BME280;36133;42.522;27.456;2022-08-01T00:43:47;100822.69;;;25.26;66.29
50250;BME280;36133;42.522;27.456;2022-08-01T00:46:13;100798.47;;;25.03;66.86
50250;BME280;36133;42.522;27.456;2022-08-01T00:48:38;100793.06;;;24.26;68.78
50250;BME280;36133;42.522;27.456;2022-08-01T00:51:04;100680.47;;;23.32;70.08
50250;BME280;36133;42.522;27.456;2022-08-01T00:53:30;100504.53;;;22.07;70.80
50250;BME280;36133;42.522;27.456;2022-08-01T00:55:56;100767.03;;;23.51;72.20
50250;BME280;36133;42.522;27.456;2022-08-01T00:58:22;100759.91;;;23.71;70.90
50250;BME280;36133;42.522;27.456;2022-08-01T01:00:48;100719.97;;;23.63;70.23
50250;BME280;36133;42.522;27.456;2022-08-01T01:03:14;100811.81;;;24.24;69.74
50250;BME280;36133;42.522;27.456;2022-08-01T01:05:52;100804.59;;;23.98;70.21
50250;BME280;36133;42.522;27.456;2022-08-01T01:08:31;100762.97;;;23.79;70.75
50250;BME280;36133;42.522;27.456;2022-08-01T01:11:09;100778.09;;;23.72;71.04
50250;BME280;36133;42.522;27.456;2022-08-01T01:13:41;100719.16;;;23.78;70.26
50250;BME280;36133;42.522;27.456;2022-08-01T01:16:12;100696.50;;;23.60;69.97
50250;BME280;36133;42.522;27.456;2022-08-01T01:18:46;100767.69;;;24.50;68.33
50250;BME280;36133;42.522;27.456;2022-08-01T01:23:53;100775.69;;;24.41;69.33
50250;BME280;36133;42.522;27.456;2022-08-01T01:29:17;100744.78;;;24.09;68.96
50250;BME280;36133;42.522;27.456;2022-08-01T01:31:55;100783.41;;;24.44;68.79
50250;BME280;36133;42.522;27.456;2022-08-01T01:34:22;100732.38;;;24.32;67.79
50250;BME280;36133;42.522;27.456;2022-08-01T01:36:52;100791.94;;;24.58;68.12
50250;BME280;36133;42.522;27.456;2022-08-01T01:39:20;100620.19;;;23.66;67.72
50250;BME280;36133;42.522;27.456;2022-08-01T01:41:47;100770.94;;;24.57;67.72
50250;BME280;36133;42.522;27.456;2022-08-01T01:44:14;100515.75;;;22.83;68.28
50250;BME280;36133;42.522;27.456;2022-08-01T01:46:41;100562.03;;;23.32;67.86
50250;BME280;36133;42.522;27.456;2022-08-01T01:49:08;100786.44;;;24.43;68.94
50250;BME280;36133;42.522;27.456;2022-08-01T01:51:35;100468.31;;;22.40;69.82
50250;BME280;36133;42.522;27.456;2022-08-01T01:54:03;100422.09;;;22.17;69.47
50250;BME280;36133;42.522;27.456;2022-08-01T01:56:30;100772.38;;;24.39;69.70
50250;BME280;36133;42.522;27.456;2022-08-01T01:59:01;100672.78;;;23.44;71.38
50250;BME280;36133;42.522;27.456;2022-08-01T02:01:31;100687.69;;;23.53;71.00
50250;BME280;36133;42.522;27.456;2022-08-01T02:03:58;100726.88;;;23.76;70.72
50250;BME280;36133;42.522;27.456;2022-08-01T02:06:26;100606.66;;;23.44;68.63
50250;BME280;36133;42.522;27.456;2022-08-01T02:08:53;100721.63;;;23.69;70.63
50250;BME280;36133;42.522;27.456;2022-08-01T02:11:21;100777.03;;;23.78;72.27
50250;BME280;36133;42.522;27.456;2022-08-01T02:13:56;100782.00;;;23.81;71.73
50250;BME280;36133;42.522;27.456;2022-08-01T02:16:26;100785.84;;;23.80;71.40
50250;BME280;36133;42.522;27.456;2022-08-01T02:18:52;100487.53;;;22.20;69.73
50250;BME280;36133;42.522;27.456;2022-08-01T02:21:26;100624.63;;;22.54;69.97
50250;BME280;36133;42.522;27.456;2022-08-01T02:23:55;100771.13;;;23.49;69.15
50250;BME280;36133;42.522;27.456;2022-08-01T02:26:25;100749.66;;;23.41;67.97
50250;BME280;36133;42.522;27.456;2022-08-01T02:28:56;100747.09;;;23.24;68.50
50250;BME280;36133;42.522;27.456;2022-08-01T02:31:23;100732.00;;;23.31;66.86
50250;BME280;36133;42.522;27.456;2022-08-01T02:34:04;100721.28;;;23.45;66.31
50250;BME280;36133;42.522;27.456;2022-08-01T02:36:33;100761.03;;;23.75;66.21
50250;BME280;36133;42.522;27.456;2022-08-01T02:39:03;100576.78;;;22.70;65.78
50250;BME280;36133;42.522;27.456;2022-08-01T02:41:33;100733.97;;;23.51;66.50
50250;BME280;36133;42.522;27.456;2022-08-01T02:44:05;100443.00;;;22.33;64.54
50250;BME280;36133;42.522;27.456;2022-08-01T02:46:38;100763.47;;;23.61;67.96
50250;BME280;36133;42.522;27.456;2022-08-01T02:49:07;100585.38;;;22.84;66.91
50250;BME280;36133;42.522;27.456;2022-08-01T02:51:35;100767.94;;;23.97;66.96
50250;BME280;36133;42.522;27.456;2022-08-01T02:54:02;100767.53;;;23.33;69.17
50250;BME280;36133;42.522;27.456;2022-08-01T02:56:31;100263.31;;;20.14;70.16
50250;BME280;36133;42.522;27.456;2022-08-01T02:59:02;100718.00;;;22.80;70.37
50250;BME280;36133;42.522;27.456;2022-08-01T03:01:30;100780.69;;;23.21;69.49
50250;BME280;36133;42.522;27.456;2022-08-01T03:03:57;100365.78;;;20.40;69.67
50250;BME280;36133;42.522;27.456;2022-08-01T03:06:23;100562.06;;;21.81;68.67
50250;BME280;36133;42.522;27.456;2022-08-01T03:08:50;100487.69;;;21.51;67.12
50250;BME280;36133;42.522;27.456;2022-08-01T03:11:17;100777.44;;;23.29;66.11
50250;BME280;36133;42.522;27.456;2022-08-01T03:13:44;100749.44;;;23.73;63.70
50250;BME280;36133;42.522;27.456;2022-08-01T03:16:11;100776.44;;;23.60;62.85
50250;BME280;36133;42.522;27.456;2022-08-01T03:18:39;100623.22;;;22.51;62.08
50250;BME280;36133;42.522;27.456;2022-08-01T03:21:08;100667.13;;;22.83;61.97
50250;BME280;36133;42.522;27.456;2022-08-01T03:23:35;100780.91;;;23.87;60.39
50250;BME280;36133;42.522;27.456;2022-08-01T03:26:01;100785.31;;;23.93;59.51
50250;BME280;36133;42.522;27.456;2022-08-01T03:28:29;100762.13;;;23.84;58.58
50250;BME280;36133;42.522;27.456;2022-08-01T03:30:56;100568.06;;;22.93;57.87
50250;BME280;36133;42.522;27.456;2022-08-01T03:33:22;100764.91;;;24.19;57.18
50250;BME280;36133;42.522;27.456;2022-08-01T03:35:49;100745.31;;;23.80;57.19
50250;BME280;36133;42.522;27.456;2022-08-01T03:38:22;100650.19;;;23.27;57.07
50250;BME280;36133;42.522;27.456;2022-08-01T03:40:55;100748.63;;;23.97;55.68
50250;BME280;36133;42.522;27.456;2022-08-01T03:43:26;100789.19;;;23.92;56.18
50250;BME280;36133;42.522;27.456;2022-08-01T03:45:57;100691.94;;;22.98;55.50
50250;BME280;36133;42.522;27.456;2022-08-01T03:48:28;100767.38;;;23.70;54.45
50250;BME280;36133;42.522;27.456;2022-08-01T03:50:54;100770.97;;;24.21;53.71
50250;BME280;36133;42.522;27.456;2022-08-01T03:53:24;100730.72;;;23.80;53.85
50250;BME280;36133;42.522;27.456;2022-08-01T03:55:50;100761.59;;;24.53;52.95
50250;BME280;36133;42.522;27.456;2022-08-01T03:58:17;100687.09;;;23.46;53.93
50250;BME280;36133;42.522;27.456;2022-08-01T04:00:43;100797.97;;;23.84;54.72
50250;BME280;36133;42.522;27.456;2022-08-01T04:03:10;100674.97;;;23.37;54.24
50250;BME280;36133;42.522;27.456;2022-08-01T04:05:37;100796.63;;;23.91;53.91
50250;BME280;36133;42.522;27.456;2022-08-01T04:08:05;100795.25;;;24.19;53.27
50250;BME280;36133;42.522;27.456;2022-08-01T04:10:31;100746.69;;;23.62;53.81
50250;BME280;36133;42.522;27.456;2022-08-01T04:12:57;100710.50;;;23.28;53.53
50250;BME280;36133;42.522;27.456;2022-08-01T04:15:22;100727.31;;;23.47;53.22
50250;BME280;36133;42.522;27.456;2022-08-01T04:17:49;100794.34;;;23.58;53.05
50250;BME280;36133;42.522;27.456;2022-08-01T04:20:14;100782.00;;;23.76;52.67
50250;BME280;36133;42.522;27.456;2022-08-01T04:22:41;100736.50;;;23.73;52.03
50250;BME280;36133;42.522;27.456;2022-08-01T04:25:15;100776.50;;;24.06;50.71
50250;BME280;36133;42.522;27.456;2022-08-01T04:27:46;100659.59;;;23.77;49.80
50250;BME280;36133;42.522;27.456;2022-08-01T04:30:13;100775.13;;;24.49;49.58
50250;BME280;36133;42.522;27.456;2022-08-01T04:32:41;100741.19;;;24.34;49.46
50250;BME280;36133;42.522;27.456;2022-08-01T04:35:11;100763.06;;;25.15;47.43
50250;BME280;36133;42.522;27.456;2022-08-01T04:37:38;100770.50;;;25.74;45.72
50250;BME280;36133;42.522;27.456;2022-08-01T04:40:06;100671.72;;;24.96;45.02
50250;BME280;36133;42.522;27.456;2022-08-01T04:42:35;100678.63;;;25.48;44.02
50250;BME280;36133;42.522;27.456;2022-08-01T04:45:01;100650.16;;;25.42;44.19
50250;BME280;36133;42.522;27.456;2022-08-01T04:47:27;100761.06;;;26.48;43.83
50250;BME280;36133;42.522;27.456;2022-08-01T04:49:53;100305.44;;;23.74;43.20
50250;BME280;36133;42.522;27.456;2022-08-01T04:52:19;100793.88;;;26.60;44.49
50250;BME280;36133;42.522;27.456;2022-08-01T04:54:45;100784.59;;;26.99;43.20
50250;BME280;36133;42.522;27.456;2022-08-01T04:57:11;100789.81;;;27.05;42.33
50250;BME280;36133;42.522;27.456;2022-08-01T04:59:41;100689.47;;;27.08;41.02
50250;BME280;36133;42.522;27.456;2022-08-01T05:02:12;100782.53;;;27.33;41.46
50250;BME280;36133;42.522;27.456;2022-08-01T05:04:38;100756.25;;;27.87;40.33
50250;BME280;36133;42.522;27.456;2022-08-01T05:07:05;100729.28;;;28.39;38.81
50250;BME280;36133;42.522;27.456;2022-08-01T05:09:32;100646.44;;;28.60;38.28
50250;BME280;36133;42.522;27.456;2022-08-01T05:11:58;100725.34;;;28.26;39.48
50250;BME280;36133;42.522;27.456;2022-08-01T05:14:28;100724.91;;;28.66;39.23
50250;BME280;36133;42.522;27.456;2022-08-01T05:16:57;100527.06;;;26.56;41.42
50250;BME280;36133;42.522;27.456;2022-08-01T05:19:22;100779.53;;;27.49;41.89
50250;BME280;36133;42.522;27.456;2022-08-01T05:21:48;100699.41;;;27.85;39.53
50250;BME280;36133;42.522;27.456;2022-08-01T05:24:13;100733.50;;;28.37;38.17
50250;BME280;36133;42.522;27.456;2022-08-01T05:26:39;100627.44;;;28.07;36.62
50250;BME280;36133;42.522;27.456;2022-08-01T05:29:05;100533.41;;;27.13;36.61
50250;BME280;36133;42.522;27.456;2022-08-01T05:31:30;100739.38;;;28.35;36.47
50250;BME280;36133;42.522;27.456;2022-08-01T05:34:00;100570.28;;;27.79;35.41
50250;BME280;36133;42.522;27.456;2022-08-01T05:36:26;100779.13;;;29.18;35.34
50250;BME280;36133;42.522;27.456;2022-08-01T05:38:51;100742.72;;;28.92;35.00
50250;BME280;36133;42.522;27.456;2022-08-01T05:41:17;100781.94;;;28.91;35.30
50250;BME280;36133;42.522;27.456;2022-08-01T05:43:42;100557.88;;;28.17;34.93
50250;BME280;36133;42.522;27.456;2022-08-01T05:46:08;100625.53;;;28.63;35.26
50250;BME280;36133;42.522;27.456;2022-08-01T05:48:33;100735.47;;;29.18;35.46
50250;BME280;36133;42.522;27.456;2022-08-01T05:50:59;100724.06;;;28.79;35.35
50250;BME280;36133;42.522;27.456;2022-08-01T05:53:24;100734.28;;;28.83;35.58
50250;BME280;36133;42.522;27.456;2022-08-01T05:55:50;100754.06;;;28.96;35.28
50250;BME280;36133;42.522;27.456;2022-08-01T05:58:15;100619.78;;;28.31;35.22
50250;BME280;36133;42.522;27.456;2022-08-01T06:00:41;100697.13;;;28.38;34.49
50250;BME280;36133;42.522;27.456;2022-08-01T06:03:06;100597.59;;;28.81;33.36
50250;BME280;36133;42.522;27.456;2022-08-01T06:05:32;100728.47;;;29.35;34.03
50250;BME280;36133;42.522;27.456;2022-08-01T06:07:58;100742.44;;;29.80;33.73
50250;BME280;36133;42.522;27.456;2022-08-01T06:10:23;100724.16;;;30.32;32.93
50250;BME280;36133;42.522;27.456;2022-08-01T06:12:49;100561.75;;;30.06;32.17
50250;BME280;36133;42.522;27.456;2022-08-01T06:15:18;100664.06;;;30.31;33.20
50250;BME280;36133;42.522;27.456;2022-08-01T06:17:43;100481.22;;;30.26;31.88
50250;BME280;36133;42.522;27.456;2022-08-01T06:20:09;100583.78;;;29.93;33.34
50250;BME280;36133;42.522;27.456;2022-08-01T06:22:35;100415.69;;;28.48;33.91
50250;BME280;36133;42.522;27.456;2022-08-01T06:25:01;100760.78;;;31.36;33.27
50250;BME280;36133;42.522;27.456;2022-08-01T06:27:35;100556.81;;;30.59;32.77
50250;BME280;36133;42.522;27.456;2022-08-01T06:30:11;100302.34;;;28.27;32.58
50250;BME280;36133;42.522;27.456;2022-08-01T06:32:42;100577.94;;;30.43;32.54
50250;BME280;36133;42.522;27.456;2022-08-01T06:35:18;100460.13;;;29.77;32.40
50250;BME280;36133;42.522;27.456;2022-08-01T06:37:54;100567.59;;;30.35;32.61
50250;BME280;36133;42.522;27.456;2022-08-01T06:40:23;100420.72;;;29.44;33.15
50250;BME280;36133;42.522;27.456;2022-08-01T06:42:51;100601.78;;;30.84;32.65
50250;BME280;36133;42.522;27.456;2022-08-01T06:45:19;100409.56;;;29.75;32.80
50250;BME280;36133;42.522;27.456;2022-08-01T06:47:47;100493.72;;;31.33;31.02
50250;BME280;36133;42.522;27.456;2022-08-01T06:50:14;100320.22;;;29.85;31.34
50250;BME280;36133;42.522;27.456;2022-08-01T06:52:47;100453.88;;;30.28;31.15
50250;BME280;36133;42.522;27.456;2022-08-01T06:55:19;100251.38;;;29.25;31.53
50250;BME280;36133;42.522;27.456;2022-08-01T06:57:49;100578.69;;;31.01;32.29
50250;BME280;36133;42.522;27.456;2022-08-01T07:00:21;100725.28;;;32.78;27.49
50250;BME280;36133;42.522;27.456;2022-08-01T07:02:49;100320.22;;;29.76;27.00
50250;BME280;36133;42.522;27.456;2022-08-01T07:05:15;100560.66;;;30.98;26.35
50250;BME280;36133;42.522;27.456;2022-08-01T07:07:40;100704.84;;;32.57;25.95
50250;BME280;36133;42.522;27.456;2022-08-01T07:10:11;100357.53;;;30.88;25.61
50250;BME280;36133;42.522;27.456;2022-08-01T07:12:40;100272.25;;;29.80;25.96
50250;BME280;36133;42.522;27.456;2022-08-01T07:15:10;100569.69;;;32.41;24.87
50250;BME280;36133;42.522;27.456;2022-08-01T07:17:40;100559.09;;;33.17;24.04
50250;BME280;36133;42.522;27.456;2022-08-01T07:20:08;100200.59;;;29.51;25.90
50250;BME280;36133;42.522;27.456;2022-08-01T07:22:50;100242.78;;;29.44;26.04
50250;BME280;36133;42.522;27.456;2022-08-01T07:25:16;100305.44;;;30.80;24.88
50250;BME280;36133;42.522;27.456;2022-08-01T07:27:48;100546.50;;;31.46;25.72
50250;BME280;36133;42.522;27.456;2022-08-01T07:30:20;100375.59;;;31.37;24.74
50250;BME280;36133;42.522;27.456;2022-08-01T07:32:48;100667.38;;;33.92;24.29
50250;BME280;36133;42.522;27.456;2022-08-01T07:35:14;100705.81;;;34.61;23.60
50250;BME280;36133;42.522;27.456;2022-08-01T07:37:52;100258.00;;;33.21;22.48
50250;BME280;36133;42.522;27.456;2022-08-01T07:40:18;100582.00;;;33.98;23.10
50250;BME280;36133;42.522;27.456;2022-08-01T07:42:48;100315.59;;;33.47;22.47
50250;BME280;36133;42.522;27.456;2022-08-01T07:45:19;100210.41;;;32.36;23.01
50250;BME280;36133;42.522;27.456;2022-08-01T07:48:01;100512.25;;;33.47;22.77
50250;BME280;36133;42.522;27.456;2022-08-01T07:50:26;100455.44;;;33.92;21.84
50250;BME280;36133;42.522;27.456;2022-08-01T07:52:52;100580.94;;;33.45;22.97
50250;BME280;36133;42.522;27.456;2022-08-01T07:55:21;100300.94;;;32.14;22.76
50250;BME280;36133;42.522;27.456;2022-08-01T07:57:57;100288.09;;;32.34;23.09
50250;BME280;36133;42.522;27.456;2022-08-01T08:00:22;100572.19;;;33.92;22.66
50250;BME280;36133;42.522;27.456;2022-08-01T08:02:48;100530.78;;;33.19;22.91
50250;BME280;36133;42.522;27.456;2022-08-01T08:05:17;100290.41;;;32.65;22.06
50250;BME280;36133;42.522;27.456;2022-08-01T08:07:48;100240.66;;;31.71;22.89
50250;BME280;36133;42.522;27.456;2022-08-01T08:10:13;100387.75;;;32.63;22.68
50250;BME280;36133;42.522;27.456;2022-08-01T08:12:42;100257.25;;;31.47;23.28
50250;BME280;36133;42.522;27.456;2022-08-01T08:15:15;100326.41;;;31.92;22.82
50250;BME280;36133;42.522;27.456;2022-08-01T08:17:41;100241.59;;;32.17;22.73
50250;BME280;36133;42.522;27.456;2022-08-01T08:20:07;100652.63;;;35.81;21.42
50250;BME280;36133;42.522;27.456;2022-08-01T08:22:52;100279.88;;;34.64;20.32
50250;BME280;36133;42.522;27.456;2022-08-01T08:25:21;100282.91;;;34.16;21.09
50250;BME280;36133;42.522;27.456;2022-08-01T08:27:50;100294.25;;;33.55;21.53
50250;BME280;36133;42.522;27.456;2022-08-01T08:30:19;100523.38;;;36.80;19.75
50250;BME280;36133;42.522;27.456;2022-08-01T08:32:50;100512.69;;;34.84;21.44
50250;BME280;36133;42.522;27.456;2022-08-01T08:35:18;100569.50;;;35.93;20.86
50250;BME280;36133;42.522;27.456;2022-08-01T08:37:50;100436.19;;;33.21;22.27
50250;BME280;36133;42.522;27.456;2022-08-01T08:40:16;100642.56;;;35.12;22.05
50250;BME280;36133;42.522;27.456;2022-08-01T08:42:42;100227.41;;;31.68;22.91
50250;BME280;36133;42.522;27.456;2022-08-01T08:45:12;100538.78;;;34.72;22.22
50250;BME280;36133;42.522;27.456;2022-08-01T08:47:38;100519.53;;;34.71;21.93
50250;BME280;36133;42.522;27.456;2022-08-01T08:50:08;100526.50;;;35.17;21.54
50250;BME280;36133;42.522;27.456;2022-08-01T08:52:35;100306.00;;;33.23;21.92
50250;BME280;36133;42.522;27.456;2022-08-01T08:55:03;100460.28;;;33.59;22.05
50250;BME280;36133;42.522;27.456;2022-08-01T08:57:55;100670.41;;;35.58;21.58
50250;BME280;36133;42.522;27.456;2022-08-01T09:00:21;100302.28;;;34.64;20.04
50250;BME280;36133;42.522;27.456;2022-08-01T09:02:54;100527.06;;;34.82;21.13
50250;BME280;36133;42.522;27.456;2022-08-01T09:05:24;100352.53;;;33.53;21.06
50250;BME280;36133;42.522;27.456;2022-08-01T09:08:07;100235.50;;;33.18;21.53
50250;BME280;36133;42.522;27.456;2022-08-01T09:10:39;100433.69;;;34.66;21.21
50250;BME280;36133;42.522;27.456;2022-08-01T09:13:13;100566.00;;;35.83;20.51
50250;BME280;36133;42.522;27.456;2022-08-01T09:16:06;100268.84;;;32.99;21.81
50250;BME280;36133;42.522;27.456;2022-08-01T09:19:47;100458.75;;;34.75;21.59
50250;BME280;36133;42.522;27.456;2022-08-01T09:22:23;100186.56;;;36.04;19.15
50250;BME280;36133;42.522;27.456;2022-08-01T09:25:07;100223.41;;;36.22;18.60
50250;BME280;36133;42.522;27.456;2022-08-01T09:27:37;100415.03;;;35.61;20.12
50250;BME280;36133;42.522;27.456;2022-08-01T09:32:36;100624.88;;;36.24;20.78
50250;BME280;36133;42.522;27.456;2022-08-01T09:35:28;100650.03;;;38.19;19.28
50250;BME280;36133;42.522;27.456;2022-08-01T09:38:33;100388.69;;;38.42;18.07
50250;BME280;36133;42.522;27.456;2022-08-01T09:41:00;100327.34;;;35.17;20.06
50250;BME280;36133;42.522;27.456;2022-08-01T09:43:28;100569.03;;;36.38;20.24
50250;BME280;36133;42.522;27.456;2022-08-01T09:45:58;100506.88;;;36.78;19.72
50250;BME280;36133;42.522;27.456;2022-08-01T09:48:26;100519.75;;;38.55;17.83
50250;BME280;36133;42.522;27.456;2022-08-01T09:50:59;100408.63;;;36.47;18.66
50250;BME280;36133;42.522;27.456;2022-08-01T09:53:40;100222.22;;;34.20;20.20
50250;BME280;36133;42.522;27.456;2022-08-01T09:56:10;100502.16;;;37.21;19.18
50250;BME280;36133;42.522;27.456;2022-08-01T09:58:52;100386.75;;;37.67;17.92
50250;BME280;36133;42.522;27.456;2022-08-01T10:01:44;100274.22;;;38.04;16.92
50250;BME280;36133;42.522;27.456;2022-08-01T10:04:21;100169.03;;;38.26;16.56
50250;BME280;36133;42.522;27.456;2022-08-01T10:06:49;100537.09;;;38.57;17.93
50250;BME280;36133;42.522;27.456;2022-08-01T10:09:28;100629.47;;;40.28;17.16
50250;BME280;36133;42.522;27.456;2022-08-01T10:12:00;100492.50;;;40.22;16.74
50250;BME280;36133;42.522;27.456;2022-08-01T10:14:27;100508.53;;;37.60;18.82
50250;BME280;36133;42.522;27.456;2022-08-01T10:16:59;100504.72;;;37.49;19.10
50250;BME280;36133;42.522;27.456;2022-08-01T10:19:39;100472.00;;;38.13;18.22
50250;BME280;36133;42.522;27.456;2022-08-01T10:22:36;100286.38;;;34.25;20.38
50250;BME280;36133;42.522;27.456;2022-08-01T10:25:06;100496.06;;;35.03;21.56
50250;BME280;36133;42.522;27.456;2022-08-01T10:27:33;100477.59;;;37.64;18.92
50250;BME280;36133;42.522;27.456;2022-08-01T10:30:03;100374.38;;;39.36;16.72
50250;BME280;36133;42.522;27.456;2022-08-01T10:32:31;100333.84;;;39.62;16.67
50250;BME280;36133;42.522;27.456;2022-08-01T10:34:58;100314.28;;;38.91;17.21
50250;BME280;36133;42.522;27.456;2022-08-01T10:37:29;100288.41;;;37.54;18.00
50250;BME280;36133;42.522;27.456;2022-08-01T10:40:04;100645.69;;;38.02;19.78
50250;BME280;36133;42.522;27.456;2022-08-01T10:42:34;100658.66;;;36.75;21.14
50250;BME280;36133;42.522;27.456;2022-08-01T10:45:01;100615.78;;;36.46;20.75
50250;BME280;36133;42.522;27.456;2022-08-01T10:50:40;100447.63;;;34.90;21.98
50250;BME280;36133;42.522;27.456;2022-08-01T11:01:16;100641.09;;;37.51;20.31
50250;BME280;36133;42.522;27.456;2022-08-01T11:06:49;100223.13;;;33.56;22.31
50250;BME280;36133;42.522;27.456;2022-08-01T11:09:27;100660.13;;;36.84;21.22
50250;BME280;36133;42.522;27.456;2022-08-01T11:12:01;100427.09;;;38.24;18.82
50250;BME280;36133;42.522;27.456;2022-08-01T11:14:32;100153.66;;;36.24;18.96
50250;BME280;36133;42.522;27.456;2022-08-01T11:17:30;100569.47;;;37.49;19.95
50250;BME280;36133;42.522;27.456;2022-08-01T11:25:25;100377.81;;;34.73;21.60
50250;BME280;36133;42.522;27.456;2022-08-01T11:28:17;100624.41;;;37.81;20.19
50250;BME280;36133;42.522;27.456;2022-08-01T11:30:46;100557.75;;;40.54;17.22
50250;BME280;36133;42.522;27.456;2022-08-01T11:33:13;100474.63;;;39.56;17.32
50250;BME280;36133;42.522;27.456;2022-08-01T11:38:46;100467.38;;;39.21;17.57
50250;BME280;36133;42.522;27.456;2022-08-01T11:41:26;100196.13;;;36.88;17.73
50250;BME280;36133;42.522;27.456;2022-08-01T11:43:56;100583.63;;;39.64;17.81
50250;BME280;36133;42.522;27.456;2022-08-01T11:52:04;100453.72;;;40.19;16.92
50250;BME280;36133;42.522;27.456;2022-08-01T11:54:33;100436.44;;;36.90;19.45
50250;BME280;36133;42.522;27.456;2022-08-01T11:57:10;100354.81;;;36.29;19.48
50250;BME280;36133;42.522;27.456;2022-08-01T11:59:44;100250.03;;;35.70;19.79
50250;BME280;36133;42.522;27.456;2022-08-01T12:02:32;100329.91;;;35.89;20.34
50250;BME280;36133;42.522;27.456;2022-08-01T12:05:11;100522.41;;;36.53;20.61
50250;BME280;36133;42.522;27.456;2022-08-01T12:07:38;100441.69;;;36.53;20.44
50250;BME280;36133;42.522;27.456;2022-08-01T12:12:46;100365.59;;;35.09;21.80
50250;BME280;36133;42.522;27.456;2022-08-01T12:15:13;100448.78;;;36.12;21.17
50250;BME280;36133;42.522;27.456;2022-08-01T12:17:59;100229.00;;;34.34;21.29
50250;BME280;36133;42.522;27.456;2022-08-01T12:20:52;100596.19;;;37.01;20.90
50250;BME280;36133;42.522;27.456;2022-08-01T12:23:27;100163.50;;;33.15;22.33
50250;BME280;36133;42.522;27.456;2022-08-01T12:25:56;100272.56;;;34.60;21.43
50250;BME280;36133;42.522;27.456;2022-08-01T12:28:21;100466.38;;;35.46;21.73
50250;BME280;36133;42.522;27.456;2022-08-01T12:30:50;100495.09;;;36.02;21.25
50250;BME280;36133;42.522;27.456;2022-08-01T12:33:20;100183.41;;;34.50;21.10
50250;BME280;36133;42.522;27.456;2022-08-01T12:35:50;100404.41;;;36.37;20.60
50250;BME280;36133;42.522;27.456;2022-08-01T12:38:21;100435.25;;;38.96;18.37
50250;BME280;36133;42.522;27.456;2022-08-01T12:40:50;100215.88;;;38.04;18.30
50250;BME280;36133;42.522;27.456;2022-08-01T12:43:18;100511.94;;;40.34;17.79
50250;BME280;36133;42.522;27.456;2022-08-01T12:45:49;100589.34;;;40.12;17.96
50250;BME280;36133;42.522;27.456;2022-08-01T12:48:17;100154.56;;;36.78;18.26
50250;BME280;36133;42.522;27.456;2022-08-01T12:50:51;100562.97;;;37.68;19.94
50250;BME280;36133;42.522;27.456;2022-08-01T12:53:17;100178.81;;;34.57;20.96
50250;BME280;36133;42.522;27.456;2022-08-01T12:55:48;100243.16;;;36.45;19.27
50250;BME280;36133;42.522;27.456;2022-08-01T12:58:16;100571.78;;;39.51;18.47
50250;BME280;36133;42.522;27.456;2022-08-01T13:00:44;100262.72;;;38.94;17.63
50250;BME280;36133;42.522;27.456;2022-08-01T13:03:14;100467.03;;;40.19;17.94
50250;BME280;36133;42.522;27.456;2022-08-01T13:08:12;100358.50;;;39.65;17.08
50250;BME280;36133;42.522;27.456;2022-08-01T13:10:38;100443.66;;;42.12;15.83
50250;BME280;36133;42.522;27.456;2022-08-01T13:13:04;100563.03;;;44.21;15.07
50250;BME280;36133;42.522;27.456;2022-08-01T13:15:42;100253.72;;;42.08;15.42
50250;BME280;36133;42.522;27.456;2022-08-01T13:18:26;100444.44;;;40.22;17.34
50250;BME280;36133;42.522;27.456;2022-08-01T13:21:17;100562.25;;;41.60;17.07
50250;BME280;36133;42.522;27.456;2022-08-01T13:24:08;100253.91;;;38.58;17.99
50250;BME280;36133;42.522;27.456;2022-08-01T13:27:19;100300.38;;;38.34;18.40
50250;BME280;36133;42.522;27.456;2022-08-01T13:29:45;100574.09;;;39.79;18.36
50250;BME280;36133;42.522;27.456;2022-08-01T13:32:12;100549.06;;;36.78;21.27
50250;BME280;36133;42.522;27.456;2022-08-01T13:34:45;100421.41;;;36.09;21.17
50250;BME280;36133;42.522;27.456;2022-08-01T13:37:11;100176.53;;;35.30;20.66
50250;BME280;36133;42.522;27.456;2022-08-01T13:39:36;100324.28;;;37.84;18.64